Etherton, Illinois
Current Conditions -  °F | °C
As of 7:52 PM on Wednesday 22 Oct 2014 (Local Time) from KMDH Reporting Station
Clear Clear  
Wind Chill: 44°   Ceiling: Unl
Heat Index: 47°   Visibility: 10mi
Dew Point: 40°   Wind: 6mph
Humidity: 77%   Direction: 80°E
Pressure: 30.22"   Gusts: NA
Location:  37.776°N, 89.3234°W
Report Text: KMDH 230052Z 08005KT 10SM CLR 08/04 A3022 RMK AO2 SLP235 T00830044
Loading
Personal Weather Stations






























Interactive Weather Map
Tropical Storm Tracking
New forecast layout! Learn more

10-Day Weather Forecast

Advertisements
Track Severe Weather on mobile